createdAt,value
2018-12-01T00:00:44.993Z,-0.74
2018-12-01T00:03:15.624Z,-0.44
2018-12-01T00:05:46.464Z,-0.55
2018-12-01T00:08:25.195Z,-0.50
2018-12-01T00:10:56.055Z,-0.40
2018-12-01T00:13:28.027Z,-0.45
2018-12-01T00:16:00.075Z,-0.36
2018-12-01T00:18:30.800Z,-0.72
2018-12-01T00:21:01.805Z,-0.52
2018-12-01T00:23:33.871Z,-0.90
2018-12-01T00:26:05.119Z,-0.35
2018-12-01T00:28:36.017Z,-0.20
2018-12-01T00:31:06.808Z,-0.33
2018-12-01T00:33:42.782Z,-0.55
2018-12-01T00:36:14.880Z,-0.70
2018-12-01T00:38:47.323Z,-0.65
2018-12-01T00:41:18.318Z,-0.34
2018-12-01T00:43:49.310Z,-0.51
2018-12-01T00:46:21.672Z,-2.86
2018-12-01T00:48:53.622Z,-0.48
2018-12-01T00:51:25.104Z,-0.45
2018-12-01T00:53:57.763Z,-0.07
2018-12-01T00:56:28.289Z,-0.07
2018-12-01T00:58:58.578Z,0.17
2018-12-01T01:01:29.344Z,0.18
2018-12-01T01:03:59.896Z,-0.05
2018-12-01T01:06:30.502Z,0.22
2018-12-01T01:09:01.343Z,0.05
2018-12-01T01:11:35.004Z,0.11
2018-12-01T01:14:07.587Z,-0.20
2018-12-01T01:16:45.115Z,0.20
2018-12-01T01:19:18.698Z,-0.03
2018-12-01T01:21:53.291Z,-0.10
2018-12-01T01:24:28.860Z,-0.49
2018-12-01T01:27:11.185Z,-0.26
2018-12-01T01:29:44.966Z,-0.09
2018-12-01T01:32:21.950Z,-0.17
2018-12-01T01:35:00.115Z,0.18
2018-12-01T01:37:32.182Z,-1.59
2018-12-01T01:40:07.391Z,-0.40
2018-12-01T01:42:37.999Z,-0.25
2018-12-01T01:45:29.470Z,0.11
2018-12-01T01:48:00.190Z,0.27
2018-12-01T01:50:32.902Z,-0.37
2018-12-01T01:53:04.387Z,-0.09
2018-12-01T01:55:37.528Z,-0.07
2018-12-01T01:58:11.431Z,-0.04
2018-12-01T02:00:42.272Z,0.10
2018-12-01T02:03:12.934Z,0.22
2018-12-01T02:05:46.327Z,0.15
2018-12-01T02:08:17.544Z,0.25
2018-12-01T02:17:05.533Z,0.03
2018-12-01T02:19:38.751Z,0.38
2018-12-01T02:22:13.212Z,0.38
2018-12-01T02:24:48.200Z,0.52
2018-12-01T02:27:19.065Z,-0.14
2018-12-01T02:29:49.635Z,0.12
2018-12-01T02:32:21.420Z,0.41
2018-12-01T02:34:53.611Z,0.36
2018-12-01T02:37:24.723Z,0.20
2018-12-01T02:39:57.607Z,0.32
2018-12-01T02:42:31.569Z,0.19
2018-12-01T02:45:23.177Z,0.33
2018-12-01T02:48:00.345Z,0.64
2018-12-01T02:50:31.967Z,0.39
2018-12-01T02:53:02.909Z,0.62
2018-12-01T02:55:34.909Z,0.23
2018-12-01T02:58:10.035Z,-0.04
2018-12-01T03:06:54.691Z,-0.18
2018-12-01T03:09:27.591Z,0.09
2018-12-01T03:11:58.708Z,0.36
2018-12-01T03:14:29.690Z,0.55
2018-12-01T03:17:00.222Z,0.51
2018-12-01T03:19:30.756Z,-0.01
2018-12-01T03:22:01.403Z,0.34
2018-12-01T03:24:32.535Z,-0.46
2018-12-01T03:27:06.809Z,-0.62
2018-12-01T03:29:39.908Z,-0.20
2018-12-01T03:32:12.815Z,-0.03
2018-12-01T03:34:46.641Z,0.14
2018-12-01T03:37:17.811Z,-0.11
2018-12-01T03:39:50.975Z,-0.04
2018-12-01T03:42:21.810Z,-0.39
2018-12-01T03:44:52.651Z,-0.27
2018-12-01T03:47:25.862Z,-0.25
2018-12-01T03:49:59.234Z,0.06
2018-12-01T03:52:30.069Z,0.43
2018-12-01T03:55:03.090Z,0.33
2018-12-01T03:57:33.890Z,0.83
2018-12-01T04:00:07.904Z,0.96
2018-12-01T04:02:39.727Z,0.66
2018-12-01T04:05:12.147Z,0.61
2018-12-01T04:07:54.223Z,0.60
2018-12-01T04:10:28.526Z,0.54
2018-12-01T04:13:06.954Z,0.49
2018-12-01T04:15:40.593Z,0.43
2018-12-01T04:18:14.027Z,0.53
2018-12-01T04:20:44.793Z,0.49
2018-12-01T04:23:15.770Z,0.24
2018-12-01T04:25:46.751Z,0.24
2018-12-01T04:28:20.083Z,0.11
2018-12-01T04:30:53.762Z,0.17
2018-12-01T04:33:25.107Z,0.31
2018-12-01T04:36:01.953Z,0.45
2018-12-01T04:38:35.815Z,-0.10
2018-12-01T04:41:07.742Z,-0.32
2018-12-01T04:43:39.255Z,-0.14
2018-12-01T04:46:10.086Z,0.02
2018-12-01T04:48:43.143Z,0.20
2018-12-01T04:51:17.930Z,-0.18
2018-12-01T04:53:51.326Z,0.23
2018-12-01T04:56:22.409Z,0.43
2018-12-01T04:58:55.101Z,0.43
2018-12-01T05:01:25.958Z,0.57
2018-12-01T05:03:59.130Z,0.72
2018-12-01T05:06:33.130Z,0.88
2018-12-01T05:09:08.975Z,0.89
2018-12-01T05:11:40.296Z,0.92
2018-12-01T05:14:12.262Z,1.13
2018-12-01T05:16:44.100Z,0.87
2018-12-01T05:19:17.171Z,0.97
2018-12-01T05:21:48.362Z,0.86
2018-12-01T05:24:21.627Z,0.68
2018-12-01T05:26:52.577Z,0.53
2018-12-01T05:29:25.428Z,0.47
2018-12-01T05:31:57.223Z,0.69
2018-12-01T05:34:31.484Z,0.48
2018-12-01T05:37:03.651Z,0.48
2018-12-01T05:39:34.271Z,0.64
2018-12-01T05:42:05.446Z,0.72
2018-12-01T05:44:38.249Z,0.66
2018-12-01T05:47:10.467Z,0.54
2018-12-01T05:49:43.917Z,0.72
2018-12-01T05:52:21.711Z,1.25
2018-12-01T05:54:53.589Z,1.12
2018-12-01T05:57:24.215Z,1.37
2018-12-01T05:59:54.684Z,1.14
2018-12-01T06:02:25.706Z,1.15
2018-12-01T06:04:56.356Z,1.25
2018-12-01T06:07:27.517Z,1.20
2018-12-01T06:10:00.494Z,1.29
2018-12-01T06:12:32.850Z,1.03
2018-12-01T06:15:07.715Z,1.14
2018-12-01T06:17:38.674Z,0.97
2018-12-01T06:20:12.293Z,0.86
2018-12-01T06:22:54.136Z,0.86
2018-12-01T06:25:30.923Z,0.64
2018-12-01T06:28:01.439Z,0.71
2018-12-01T06:30:32.049Z,0.85
2018-12-01T06:33:02.627Z,0.93
2018-12-01T06:35:33.203Z,0.79
2018-12-01T06:38:03.742Z,0.80
2018-12-01T06:40:34.675Z,1.01
2018-12-01T06:43:05.810Z,1.19
2018-12-01T06:45:44.499Z,1.33
2018-12-01T06:48:18.845Z,1.30
2018-12-01T06:50:52.127Z,1.00
2018-12-01T06:53:23.125Z,1.13
2018-12-01T06:55:55.828Z,1.40
2018-12-01T06:58:26.636Z,1.60
2018-12-01T07:00:57.850Z,1.74
2018-12-01T07:03:30.804Z,1.67
2018-12-01T07:06:03.044Z,1.26
2018-12-01T07:08:35.468Z,0.98
2018-12-01T07:11:10.535Z,1.07
2018-12-01T07:13:43.758Z,1.23
2018-12-01T07:16:14.328Z,1.17
2018-12-01T07:19:27.295Z,1.06
2018-12-01T07:22:12.526Z,0.75
2018-12-01T07:24:43.907Z,0.58
2018-12-01T07:27:16.835Z,1.05
2018-12-01T07:29:47.363Z,1.13
2018-12-01T07:32:17.873Z,1.30
2018-12-01T07:34:48.689Z,1.43
2018-12-01T07:37:19.391Z,1.47
2018-12-01T07:39:52.766Z,1.51
2018-12-01T07:42:27.232Z,1.17
2018-12-01T07:45:00.225Z,1.77
2018-12-01T07:47:31.129Z,1.93
2018-12-01T07:50:05.259Z,1.64
2018-12-01T07:52:37.469Z,1.67
2018-12-01T07:55:08.700Z,1.73
2018-12-01T07:57:59.869Z,1.96
2018-12-01T08:00:33.134Z,2.15
2018-12-01T08:03:05.230Z,2.08
2018-12-01T08:05:38.831Z,2.22
2018-12-01T08:08:17.419Z,0.83
2018-12-01T08:10:51.807Z,1.18
2018-12-01T08:13:22.328Z,1.59
2018-12-01T08:15:54.940Z,1.54
2018-12-01T08:18:30.227Z,1.52
2018-12-01T08:21:02.866Z,0.91
2018-12-01T08:23:34.115Z,1.34
2018-12-01T08:26:07.989Z,1.56
2018-12-01T08:28:44.799Z,1.51
2018-12-01T08:31:18.231Z,1.51
2018-12-01T08:33:49.462Z,0.88
2018-12-01T08:36:22.326Z,1.01
2018-12-01T08:38:53.223Z,1.39
2018-12-01T08:41:28.939Z,1.48
2018-12-01T08:44:01.293Z,1.52
2018-12-01T08:46:34.282Z,1.28
2018-12-01T08:49:07.334Z,1.90
2018-12-01T08:51:41.221Z,2.01
2018-12-01T08:54:18.147Z,1.88
2018-12-01T08:56:52.266Z,1.97
2018-12-01T08:59:23.120Z,2.06
2018-12-01T09:01:54.890Z,2.17
2018-12-01T09:04:25.727Z,2.09
2018-12-01T09:06:56.618Z,2.04
2018-12-01T09:09:27.708Z,2.23
2018-12-01T09:12:04.082Z,2.28
2018-12-01T09:14:37.390Z,2.60
2018-12-01T09:17:09.146Z,2.51
2018-12-01T09:19:42.606Z,2.22
2018-12-01T09:22:15.199Z,2.38
2018-12-01T09:24:47.254Z,2.82
2018-12-01T09:27:22.626Z,2.92
2018-12-01T09:29:57.290Z,3.38
2018-12-01T09:32:29.483Z,3.59
2018-12-01T09:35:00.653Z,3.62
2018-12-01T09:37:31.499Z,3.69
2018-12-01T09:40:05.591Z,2.52
2018-12-01T09:42:36.298Z,2.91
2018-12-01T09:45:16.664Z,3.26
2018-12-01T09:48:01.441Z,3.69
2018-12-01T09:50:33.439Z,3.42
2018-12-01T09:53:06.439Z,3.34
2018-12-01T09:55:38.562Z,3.17
2018-12-01T09:58:09.991Z,2.78
2018-12-01T10:00:51.638Z,2.69
2018-12-01T10:03:22.570Z,2.95
2018-12-01T10:05:56.543Z,2.89
2018-12-01T10:08:32.740Z,2.74
2018-12-01T10:11:05.941Z,2.48
2018-12-01T10:13:39.680Z,2.71
2018-12-01T10:16:12.428Z,2.77
2018-12-01T10:18:43.558Z,3.35
2018-12-01T10:21:14.227Z,3.59
2018-12-01T10:23:45.236Z,3.71
2018-12-01T10:26:18.248Z,3.23
2018-12-01T10:28:51.603Z,3.04
2018-12-01T10:31:22.807Z,2.86
2018-12-01T10:33:53.782Z,3.03
2018-12-01T10:36:25.689Z,2.92
2018-12-01T10:38:57.787Z,2.61
2018-12-01T10:41:28.923Z,1.72
2018-12-01T10:44:01.724Z,2.45
2018-12-01T10:46:35.804Z,2.45
2018-12-01T10:49:08.475Z,2.62
2018-12-01T10:51:43.243Z,2.58
2018-12-01T10:54:14.695Z,2.27
2018-12-01T10:56:48.693Z,2.42
2018-12-01T10:59:22.268Z,2.08
2018-12-01T11:01:57.758Z,2.51
2018-12-01T11:04:33.731Z,2.05
2018-12-01T11:07:06.184Z,2.54
2018-12-01T11:09:40.363Z,2.76
2018-12-01T11:12:21.967Z,2.77
2018-12-01T11:14:54.012Z,2.48
2018-12-01T11:17:25.777Z,2.99
2018-12-01T11:19:56.547Z,2.91
2018-12-01T11:22:28.645Z,2.75
2018-12-01T11:25:01.355Z,2.90
2018-12-01T11:27:31.961Z,2.78
2018-12-01T11:30:02.557Z,2.87
2018-12-01T11:32:33.466Z,2.72
2018-12-01T11:35:10.424Z,2.60
2018-12-01T11:37:42.868Z,2.65
2018-12-01T11:40:27.973Z,2.66
2018-12-01T11:42:59.658Z,2.60
2018-12-01T11:45:35.083Z,2.69
2018-12-01T11:48:11.951Z,2.57
2018-12-01T11:50:44.066Z,2.14
2018-12-01T11:53:17.490Z,1.86
2018-12-01T11:55:48.150Z,1.20
2018-12-01T11:58:19.127Z,1.52
2018-12-01T12:00:50.857Z,1.52
2018-12-01T12:03:29.298Z,1.76
2018-12-01T12:06:00.712Z,1.81
2018-12-01T12:08:42.048Z,1.56
2018-12-01T12:11:13.623Z,1.46
2018-12-01T12:13:44.032Z,1.74
2018-12-01T12:16:14.934Z,1.87
2018-12-01T12:18:48.163Z,1.09
2018-12-01T12:21:19.002Z,1.22
2018-12-01T12:23:53.275Z,1.37
2018-12-01T12:26:26.263Z,1.39
2018-12-01T12:28:59.147Z,1.53
2018-12-01T12:31:32.280Z,1.81
2018-12-01T12:34:03.287Z,1.70
2018-12-01T12:36:34.195Z,1.45
2018-12-01T12:39:06.253Z,1.64
2018-12-01T12:41:37.840Z,-0.99
2018-12-01T12:44:12.246Z,1.47
2018-12-01T12:46:48.766Z,1.56
2018-12-01T12:49:22.471Z,1.77
2018-12-01T12:51:53.040Z,2.08
2018-12-01T12:54:23.635Z,2.21
2018-12-01T12:56:54.071Z,2.16
2018-12-01T12:59:24.877Z,1.97
2018-12-01T13:01:56.005Z,1.69
2018-12-01T13:04:26.708Z,1.42
2018-12-01T13:06:57.470Z,1.96
2018-12-01T13:09:28.099Z,2.08
2018-12-01T13:11:58.472Z,1.83
2018-12-01T13:14:29.389Z,2.13
2018-12-01T13:17:00.099Z,2.12
2018-12-01T13:19:31.370Z,2.01
2018-12-01T13:22:01.938Z,1.93
2018-12-01T13:24:32.571Z,1.56
2018-12-01T13:27:09.183Z,1.58
2018-12-01T13:29:48.296Z,1.78
2018-12-01T13:32:18.599Z,1.95
2018-12-01T13:34:49.823Z,1.62
2018-12-01T13:37:22.240Z,1.57
2018-12-01T13:39:57.443Z,2.37
2018-12-01T13:42:29.181Z,1.78
2018-12-01T13:44:59.854Z,1.69
2018-12-01T13:47:31.693Z,1.53
2018-12-01T13:50:05.081Z,2.04
2018-12-01T13:52:42.160Z,2.39
2018-12-01T13:55:33.222Z,2.23
2018-12-01T13:58:05.228Z,2.63
2018-12-01T14:00:48.189Z,2.47
2018-12-01T14:03:26.430Z,2.49
2018-12-01T14:05:57.451Z,2.68
2018-12-01T14:08:33.411Z,2.14
2018-12-01T14:11:06.962Z,1.92
2018-12-01T14:13:37.595Z,2.40
2018-12-01T14:16:08.965Z,2.49
2018-12-01T14:18:40.521Z,1.42
2018-12-01T14:21:14.819Z,0.97
2018-12-01T14:23:46.840Z,1.55
2018-12-01T14:26:17.929Z,2.18
2018-12-01T14:28:49.139Z,1.99
2018-12-01T14:31:19.748Z,1.47
2018-12-01T14:33:50.422Z,1.88
2018-12-01T14:36:23.145Z,1.85
2018-12-01T14:38:57.700Z,2.58
2018-12-01T14:41:29.699Z,2.50
2018-12-01T14:44:02.071Z,2.73
2018-12-01T14:46:34.814Z,1.93
2018-12-01T14:49:10.504Z,2.12
2018-12-01T14:51:45.013Z,2.73
2018-12-01T14:54:15.437Z,2.85
2018-12-01T14:56:54.717Z,2.53
2018-12-01T14:59:25.307Z,2.33
2018-12-01T15:01:56.031Z,2.65
2018-12-01T15:04:27.287Z,2.40
2018-12-01T15:07:00.482Z,2.21
2018-12-01T15:09:36.902Z,2.30
2018-12-01T15:12:09.880Z,2.15
2018-12-01T15:14:41.039Z,2.32
2018-12-01T15:17:13.930Z,2.43
2018-12-01T15:19:44.805Z,2.00
2018-12-01T15:22:15.526Z,1.89
2018-12-01T15:24:46.195Z,2.31
2018-12-01T15:27:16.863Z,2.48
2018-12-01T15:29:52.777Z,2.89
2018-12-01T15:32:23.352Z,3.03
2018-12-01T15:34:54.764Z,2.49
2018-12-01T15:37:26.966Z,2.49
2018-12-01T15:39:59.583Z,2.56
2018-12-01T15:42:35.230Z,2.74
2018-12-01T15:45:06.790Z,2.91
2018-12-01T15:47:40.101Z,2.53
2018-12-01T15:50:18.291Z,2.24
2018-12-01T15:52:53.583Z,2.48
2018-12-01T15:55:35.230Z,2.34
2018-12-01T15:58:07.016Z,2.44
2018-12-01T16:00:39.688Z,2.32
2018-12-01T16:03:13.141Z,2.39
2018-12-01T16:05:46.135Z,2.53
2018-12-01T16:08:18.680Z,2.39
2018-12-01T16:10:53.122Z,2.25
2018-12-01T16:13:27.561Z,2.39
2018-12-01T16:16:03.499Z,2.32
2018-12-01T16:18:33.771Z,2.43
2018-12-01T16:21:04.846Z,2.52
2018-12-01T16:23:43.588Z,2.60
2018-12-01T16:26:20.642Z,2.25
2018-12-01T16:28:52.688Z,2.23
2018-12-01T16:31:23.523Z,2.29
2018-12-01T16:33:54.369Z,2.20
2018-12-01T16:36:26.419Z,2.39
2018-12-01T16:38:58.513Z,2.65
2018-12-01T16:41:33.180Z,2.37
2018-12-01T16:44:06.699Z,2.46
2018-12-01T16:46:39.290Z,2.44
2018-12-01T16:49:10.158Z,2.52
2018-12-01T16:51:43.422Z,2.70
2018-12-01T16:54:14.428Z,2.82
2018-12-01T16:56:45.640Z,2.64
2018-12-01T16:59:17.458Z,2.66
2018-12-01T17:01:50.575Z,2.68
2018-12-01T17:04:29.222Z,2.52
2018-12-01T17:07:02.396Z,2.50
2018-12-01T17:09:36.446Z,2.44
2018-12-01T17:12:08.845Z,2.49
2018-12-01T17:14:50.447Z,2.24
2018-12-01T17:17:22.833Z,2.07
2018-12-01T17:19:56.892Z,1.85
2018-12-01T17:28:41.443Z,2.11
2018-12-01T17:31:14.726Z,2.13
2018-12-01T17:33:45.001Z,2.00
2018-12-01T17:36:22.053Z,1.88
2018-12-01T17:38:54.561Z,1.86
2018-12-01T17:41:29.952Z,2.34
2018-12-01T17:44:04.424Z,2.31
2018-12-01T17:46:35.528Z,2.41
2018-12-01T17:49:08.590Z,2.40
2018-12-01T17:51:43.520Z,2.10
2018-12-01T17:54:17.154Z,2.00
2018-12-01T17:56:49.526Z,1.97
2018-12-01T17:59:20.075Z,2.26
2018-12-01T18:01:50.602Z,2.37
2018-12-01T18:04:21.135Z,2.39
2018-12-01T18:06:51.977Z,2.38
2018-12-01T18:09:23.102Z,2.38
2018-12-01T18:11:55.894Z,2.37
2018-12-01T18:14:27.674Z,2.64
2018-12-01T18:16:59.557Z,2.53
2018-12-01T18:19:34.490Z,2.17
2018-12-01T18:22:10.480Z,1.84
2018-12-01T18:24:41.411Z,1.96
2018-12-01T18:27:12.454Z,2.02
2018-12-01T18:29:43.031Z,1.86
2018-12-01T18:32:13.586Z,1.90
2018-12-01T18:34:43.986Z,1.84
2018-12-01T18:37:14.975Z,2.26
2018-12-01T18:39:45.656Z,1.95
2018-12-01T18:42:16.391Z,2.03
2018-12-01T18:44:47.491Z,2.28
2018-12-01T18:47:20.018Z,2.26
2018-12-01T18:49:50.776Z,2.49
2018-12-01T18:52:22.997Z,2.36
2018-12-01T18:54:53.979Z,2.36
2018-12-01T18:57:25.770Z,2.23
2018-12-01T18:59:57.934Z,2.26
2018-12-01T19:02:30.247Z,2.28
2018-12-01T19:05:02.055Z,1.95
2018-12-01T19:07:32.988Z,2.07
2018-12-01T19:10:27.672Z,1.97
2018-12-01T19:13:05.098Z,1.79
2018-12-01T19:15:49.708Z,1.61
2018-12-01T19:18:24.163Z,1.59
2018-12-01T19:20:57.561Z,1.44
2018-12-01T19:23:29.913Z,1.25
2018-12-01T19:26:02.823Z,1.19
2018-12-01T19:28:36.226Z,1.13
2018-12-01T19:31:11.037Z,1.16
2018-12-01T19:33:41.579Z,0.92
2018-12-01T19:36:14.000Z,0.92
2018-12-01T19:38:46.300Z,0.83
2018-12-01T19:41:19.258Z,0.84
2018-12-01T19:43:52.489Z,0.87
2018-12-01T19:46:24.026Z,0.72
2018-12-01T19:48:58.922Z,0.66
2018-12-01T19:51:31.163Z,0.60
2018-12-01T19:54:02.106Z,0.40
2018-12-01T19:56:33.280Z,0.48
2018-12-01T19:59:03.851Z,0.40
2018-12-01T20:01:40.968Z,0.31
2018-12-01T20:04:13.656Z,0.29
2018-12-01T20:06:44.307Z,-0.02
2018-12-01T20:09:20.514Z,-0.23
2018-12-01T20:11:52.391Z,0.05
2018-12-01T20:14:23.523Z,-0.02
2018-12-01T20:16:57.235Z,-0.02
2018-12-01T20:19:29.393Z,-0.04
2018-12-01T20:22:02.778Z,0.08
2018-12-01T20:24:35.290Z,0.16
2018-12-01T20:27:07.718Z,0.08
2018-12-01T20:29:39.285Z,0.04
2018-12-01T20:32:10.691Z,0.00
2018-12-01T20:34:41.245Z,-0.09
2018-12-01T20:37:16.810Z,-0.25
2018-12-01T20:39:48.271Z,-0.23
2018-12-01T20:42:22.319Z,-0.38
2018-12-01T20:44:55.497Z,-0.20
2018-12-01T20:47:27.244Z,-0.25
2018-12-01T20:49:59.355Z,-0.19
2018-12-01T20:52:30.027Z,-0.32
2018-12-01T20:55:00.640Z,-0.07
2018-12-01T20:57:31.883Z,-0.09
2018-12-01T21:00:09.015Z,-0.05
2018-12-01T21:02:56.748Z,0.12
2018-12-01T21:05:39.093Z,0.04
2018-12-01T21:08:09.779Z,-0.24
2018-12-01T21:10:48.403Z,-0.16
2018-12-01T21:13:19.596Z,-0.19
2018-12-01T21:15:57.255Z,-0.28
2018-12-01T21:18:29.819Z,-0.39
2018-12-01T21:21:01.478Z,-0.22
2018-12-01T21:23:32.524Z,-0.16
2018-12-01T21:26:08.479Z,-0.22
2018-12-01T21:28:39.054Z,-0.43
2018-12-01T21:31:10.574Z,-0.44
2018-12-01T21:33:42.569Z,-0.53
2018-12-01T21:36:14.441Z,-0.50
2018-12-01T21:38:47.643Z,-0.46
2018-12-01T21:41:20.704Z,-0.35
2018-12-01T21:43:56.470Z,-0.20
2018-12-01T21:46:27.476Z,-0.25
2018-12-01T21:48:57.984Z,-0.33
2018-12-01T21:51:28.604Z,-0.33
2018-12-01T21:53:59.294Z,-0.46
2018-12-01T21:56:29.997Z,-0.41
2018-12-01T21:59:04.081Z,-0.03
2018-12-01T22:01:37.896Z,-0.10
2018-12-01T22:04:10.211Z,-0.06
2018-12-01T22:06:43.656Z,0.15
2018-12-01T22:09:15.733Z,0.22
2018-12-01T22:11:48.734Z,0.16
2018-12-01T22:14:21.925Z,0.18
2018-12-01T22:16:54.605Z,0.16
2018-12-01T22:19:26.875Z,0.14
2018-12-01T22:22:00.008Z,0.00
2018-12-01T22:24:32.750Z,0.10
2018-12-01T22:27:03.893Z,0.11
2018-12-01T22:29:35.834Z,0.18
2018-12-01T22:32:07.826Z,0.27
2018-12-01T22:34:39.182Z,0.58
2018-12-01T22:37:09.482Z,1.01
2018-12-01T22:39:40.609Z,1.16
2018-12-01T22:42:11.435Z,1.32
2018-12-01T22:44:41.989Z,1.29
2018-12-01T22:47:14.686Z,0.93
2018-12-01T22:49:46.670Z,1.10
2018-12-01T22:52:19.070Z,1.01
2018-12-01T22:54:53.038Z,1.13
2018-12-01T22:57:24.281Z,1.42
2018-12-01T22:59:57.108Z,1.42
2018-12-01T23:02:30.143Z,1.31
2018-12-01T23:05:00.791Z,1.40
2018-12-01T23:07:31.547Z,1.18
2018-12-01T23:10:08.287Z,1.33
2018-12-01T23:12:41.270Z,1.35
2018-12-01T23:15:13.862Z,1.27
2018-12-01T23:17:56.256Z,1.08
2018-12-01T23:20:32.935Z,1.01
2018-12-01T23:23:07.411Z,1.44
2018-12-01T23:25:39.190Z,1.39
2018-12-01T23:28:12.130Z,1.43
2018-12-01T23:30:54.451Z,1.16
2018-12-01T23:33:28.759Z,1.29
2018-12-01T23:36:01.154Z,1.13
2018-12-01T23:38:32.594Z,1.23
2018-12-01T23:41:07.610Z,1.19
2018-12-01T23:43:39.148Z,1.38
2018-12-01T23:46:10.780Z,2.01
2018-12-01T23:48:43.935Z,2.38
2018-12-01T23:51:20.178Z,1.92
2018-12-01T23:53:54.187Z,1.85
2018-12-01T23:56:28.022Z,1.78
2018-12-01T23:58:58.797Z,1.63
